sensor_id;sensor_type;location;lat;lon;timestamp;P1;durP1;ratioP1;P2;durP2;ratioP2
16137;SDS011;8174;43.550;5.206;2023-05-29T00:00:22;8.45;;;4.03;;
16137;SDS011;8174;43.550;5.206;2023-05-29T00:02:50;4.93;;;3.90;;
16137;SDS011;8174;43.550;5.206;2023-05-29T00:05:17;7.28;;;4.43;;
16137;SDS011;8174;43.550;5.206;2023-05-29T00:07:45;9.25;;;4.05;;
16137;SDS011;8174;43.550;5.206;2023-05-29T00:10:13;7.00;;;4.45;;
16137;SDS011;8174;43.550;5.206;2023-05-29T00:12:41;7.75;;;4.22;;
16137;SDS011;8174;43.550;5.206;2023-05-29T00:15:08;7.47;;;4.53;;
16137;SDS011;8174;43.550;5.206;2023-05-29T00:17:39;5.75;;;3.97;;
16137;SDS011;8174;43.550;5.206;2023-05-29T00:20:08;6.70;;;4.32;;
16137;SDS011;8174;43.550;5.206;2023-05-29T00:22:36;7.35;;;4.18;;
16137;SDS011;8174;43.550;5.206;2023-05-29T00:25:04;6.82;;;3.97;;
16137;SDS011;8174;43.550;5.206;2023-05-29T00:27:31;8.30;;;3.90;;
16137;SDS011;8174;43.550;5.206;2023-05-29T00:29:59;7.05;;;4.05;;
16137;SDS011;8174;43.550;5.206;2023-05-29T00:32:26;5.60;;;3.85;;
16137;SDS011;8174;43.550;5.206;2023-05-29T00:34:55;8.75;;;4.00;;
16137;SDS011;8174;43.550;5.206;2023-05-29T00:37:22;10.18;;;4.40;;
16137;SDS011;8174;43.550;5.206;2023-05-29T00:39:50;6.35;;;4.30;;
16137;SDS011;8174;43.550;5.206;2023-05-29T00:42:18;7.43;;;4.15;;
16137;SDS011;8174;43.550;5.206;2023-05-29T00:44:45;7.40;;;4.25;;
16137;SDS011;8174;43.550;5.206;2023-05-29T00:47:12;11.25;;;4.30;;
16137;SDS011;8174;43.550;5.206;2023-05-29T00:49:40;12.90;;;4.28;;
16137;SDS011;8174;43.550;5.206;2023-05-29T00:52:08;6.07;;;4.30;;
16137;SDS011;8174;43.550;5.206;2023-05-29T00:54:36;7.00;;;4.30;;
16137;SDS011;8174;43.550;5.206;2023-05-29T00:57:04;7.82;;;4.45;;
16137;SDS011;8174;43.550;5.206;2023-05-29T00:59:32;5.72;;;4.00;;
16137;SDS011;8174;43.550;5.206;2023-05-29T01:02:00;6.30;;;4.47;;
16137;SDS011;8174;43.550;5.206;2023-05-29T01:04:28;5.97;;;4.03;;
16137;SDS011;8174;43.550;5.206;2023-05-29T01:06:58;7.05;;;4.15;;
16137;SDS011;8174;43.550;5.206;2023-05-29T01:09:28;8.05;;;4.47;;
16137;SDS011;8174;43.550;5.206;2023-05-29T01:11:58;7.22;;;4.47;;
16137;SDS011;8174;43.550;5.206;2023-05-29T01:14:29;7.63;;;4.82;;
16137;SDS011;8174;43.550;5.206;2023-05-29T01:17:00;7.40;;;4.10;;
16137;SDS011;8174;43.550;5.206;2023-05-29T01:19:37;6.97;;;3.97;;
16137;SDS011;8174;43.550;5.206;2023-05-29T01:22:13;7.57;;;3.92;;
16137;SDS011;8174;43.550;5.206;2023-05-29T01:24:48;7.28;;;4.15;;
16137;SDS011;8174;43.550;5.206;2023-05-29T01:27:19;6.03;;;4.18;;
16137;SDS011;8174;43.550;5.206;2023-05-29T01:29:49;7.70;;;4.22;;
16137;SDS011;8174;43.550;5.206;2023-05-29T01:32:18;7.60;;;4.30;;
16137;SDS011;8174;43.550;5.206;2023-05-29T01:34:46;9.27;;;4.45;;
16137;SDS011;8174;43.550;5.206;2023-05-29T01:37:13;5.30;;;3.95;;
16137;SDS011;8174;43.550;5.206;2023-05-29T01:39:40;6.75;;;4.28;;
16137;SDS011;8174;43.550;5.206;2023-05-29T01:42:08;9.52;;;4.50;;
16137;SDS011;8174;43.550;5.206;2023-05-29T01:44:37;7.47;;;4.53;;
16137;SDS011;8174;43.550;5.206;2023-05-29T01:47:05;8.60;;;4.40;;
16137;SDS011;8174;43.550;5.206;2023-05-29T01:49:32;8.70;;;4.57;;
16137;SDS011;8174;43.550;5.206;2023-05-29T01:52:00;9.80;;;4.68;;
16137;SDS011;8174;43.550;5.206;2023-05-29T01:54:27;7.72;;;4.55;;
16137;SDS011;8174;43.550;5.206;2023-05-29T01:56:54;7.72;;;4.68;;
16137;SDS011;8174;43.550;5.206;2023-05-29T01:59:22;7.60;;;4.50;;
16137;SDS011;8174;43.550;5.206;2023-05-29T02:01:51;9.48;;;4.65;;
16137;SDS011;8174;43.550;5.206;2023-05-29T02:04:18;8.02;;;4.45;;
16137;SDS011;8174;43.550;5.206;2023-05-29T02:06:45;8.10;;;4.63;;
16137;SDS011;8174;43.550;5.206;2023-05-29T02:09:13;6.85;;;4.43;;
16137;SDS011;8174;43.550;5.206;2023-05-29T02:11:41;5.63;;;4.30;;
16137;SDS011;8174;43.550;5.206;2023-05-29T02:14:10;5.85;;;4.35;;
16137;SDS011;8174;43.550;5.206;2023-05-29T02:16:38;7.88;;;4.53;;
16137;SDS011;8174;43.550;5.206;2023-05-29T02:19:07;8.25;;;4.53;;
16137;SDS011;8174;43.550;5.206;2023-05-29T02:21:37;8.48;;;4.40;;
16137;SDS011;8174;43.550;5.206;2023-05-29T02:24:05;7.15;;;4.53;;
16137;SDS011;8174;43.550;5.206;2023-05-29T02:26:32;5.75;;;4.57;;
16137;SDS011;8174;43.550;5.206;2023-05-29T02:29:01;6.20;;;4.65;;
16137;SDS011;8174;43.550;5.206;2023-05-29T02:31:30;6.30;;;4.75;;
16137;SDS011;8174;43.550;5.206;2023-05-29T02:33:58;7.50;;;4.18;;
16137;SDS011;8174;43.550;5.206;2023-05-29T02:36:26;9.85;;;4.70;;
16137;SDS011;8174;43.550;5.206;2023-05-29T02:38:54;5.78;;;4.00;;
16137;SDS011;8174;43.550;5.206;2023-05-29T02:41:21;6.32;;;3.78;;
16137;SDS011;8174;43.550;5.206;2023-05-29T02:43:48;5.90;;;4.15;;
16137;SDS011;8174;43.550;5.206;2023-05-29T02:46:15;7.40;;;4.25;;
16137;SDS011;8174;43.550;5.206;2023-05-29T02:48:43;6.47;;;3.80;;
16137;SDS011;8174;43.550;5.206;2023-05-29T02:51:10;7.63;;;4.00;;
16137;SDS011;8174;43.550;5.206;2023-05-29T02:53:39;6.90;;;4.13;;
16137;SDS011;8174;43.550;5.206;2023-05-29T02:56:06;6.60;;;4.10;;
16137;SDS011;8174;43.550;5.206;2023-05-29T02:58:34;9.40;;;4.15;;
16137;SDS011;8174;43.550;5.206;2023-05-29T03:01:01;7.20;;;4.72;;
16137;SDS011;8174;43.550;5.206;2023-05-29T03:03:29;7.35;;;4.55;;
16137;SDS011;8174;43.550;5.206;2023-05-29T03:05:56;8.00;;;4.38;;
16137;SDS011;8174;43.550;5.206;2023-05-29T03:08:24;7.82;;;4.30;;
16137;SDS011;8174;43.550;5.206;2023-05-29T03:10:54;6.82;;;4.60;;
16137;SDS011;8174;43.550;5.206;2023-05-29T03:13:22;7.57;;;4.50;;
16137;SDS011;8174;43.550;5.206;2023-05-29T03:15:49;12.60;;;4.70;;
16137;SDS011;8174;43.550;5.206;2023-05-29T03:18:21;6.75;;;4.40;;
16137;SDS011;8174;43.550;5.206;2023-05-29T03:20:49;5.80;;;4.07;;
16137;SDS011;8174;43.550;5.206;2023-05-29T03:23:16;6.00;;;3.92;;
16137;SDS011;8174;43.550;5.206;2023-05-29T03:25:43;6.90;;;4.68;;
16137;SDS011;8174;43.550;5.206;2023-05-29T03:28:12;6.50;;;4.45;;
16137;SDS011;8174;43.550;5.206;2023-05-29T03:30:40;8.00;;;4.45;;
16137;SDS011;8174;43.550;5.206;2023-05-29T03:33:07;6.40;;;4.35;;
16137;SDS011;8174;43.550;5.206;2023-05-29T03:35:34;7.50;;;4.40;;
16137;SDS011;8174;43.550;5.206;2023-05-29T03:38:02;7.97;;;4.30;;
16137;SDS011;8174;43.550;5.206;2023-05-29T03:40:29;9.00;;;4.30;;
16137;SDS011;8174;43.550;5.206;2023-05-29T03:42:56;8.23;;;4.07;;
16137;SDS011;8174;43.550;5.206;2023-05-29T03:45:25;6.63;;;4.47;;
16137;SDS011;8174;43.550;5.206;2023-05-29T03:47:52;11.13;;;4.55;;
16137;SDS011;8174;43.550;5.206;2023-05-29T03:50:20;6.22;;;4.47;;
16137;SDS011;8174;43.550;5.206;2023-05-29T03:52:47;9.75;;;4.55;;
16137;SDS011;8174;43.550;5.206;2023-05-29T03:55:14;7.03;;;4.25;;
16137;SDS011;8174;43.550;5.206;2023-05-29T03:57:42;9.13;;;4.18;;
16137;SDS011;8174;43.550;5.206;2023-05-29T04:00:09;7.18;;;4.25;;
16137;SDS011;8174;43.550;5.206;2023-05-29T04:02:39;7.72;;;4.25;;
16137;SDS011;8174;43.550;5.206;2023-05-29T04:05:07;8.05;;;4.35;;
16137;SDS011;8174;43.550;5.206;2023-05-29T04:07:35;8.00;;;4.43;;
16137;SDS011;8174;43.550;5.206;2023-05-29T04:10:03;6.75;;;4.07;;
16137;SDS011;8174;43.550;5.206;2023-05-29T04:12:31;6.55;;;4.20;;
16137;SDS011;8174;43.550;5.206;2023-05-29T04:14:58;6.32;;;4.43;;
16137;SDS011;8174;43.550;5.206;2023-05-29T04:17:26;7.72;;;4.60;;
16137;SDS011;8174;43.550;5.206;2023-05-29T04:19:54;6.45;;;3.97;;
16137;SDS011;8174;43.550;5.206;2023-05-29T04:22:22;5.43;;;4.13;;
16137;SDS011;8174;43.550;5.206;2023-05-29T04:24:49;5.70;;;3.80;;
16137;SDS011;8174;43.550;5.206;2023-05-29T04:27:16;4.97;;;3.75;;
16137;SDS011;8174;43.550;5.206;2023-05-29T04:29:44;5.82;;;4.30;;
16137;SDS011;8174;43.550;5.206;2023-05-29T04:32:11;6.88;;;4.30;;
16137;SDS011;8174;43.550;5.206;2023-05-29T04:34:38;6.43;;;4.05;;
16137;SDS011;8174;43.550;5.206;2023-05-29T04:37:10;6.68;;;4.10;;
16137;SDS011;8174;43.550;5.206;2023-05-29T04:39:38;8.30;;;4.03;;
16137;SDS011;8174;43.550;5.206;2023-05-29T04:42:05;6.25;;;3.90;;
16137;SDS011;8174;43.550;5.206;2023-05-29T04:44:33;7.10;;;3.80;;
16137;SDS011;8174;43.550;5.206;2023-05-29T04:47:00;6.97;;;3.78;;
16137;SDS011;8174;43.550;5.206;2023-05-29T04:49:28;4.35;;;3.70;;
16137;SDS011;8174;43.550;5.206;2023-05-29T04:51:56;6.53;;;4.20;;
16137;SDS011;8174;43.550;5.206;2023-05-29T04:54:26;7.18;;;4.28;;
16137;SDS011;8174;43.550;5.206;2023-05-29T04:56:54;6.50;;;4.28;;
16137;SDS011;8174;43.550;5.206;2023-05-29T04:59:21;7.10;;;3.75;;
16137;SDS011;8174;43.550;5.206;2023-05-29T05:01:48;11.23;;;4.35;;
16137;SDS011;8174;43.550;5.206;2023-05-29T05:04:16;8.75;;;3.90;;
16137;SDS011;8174;43.550;5.206;2023-05-29T05:06:43;9.15;;;4.18;;
16137;SDS011;8174;43.550;5.206;2023-05-29T05:09:11;6.85;;;3.92;;
16137;SDS011;8174;43.550;5.206;2023-05-29T05:11:39;8.95;;;4.18;;
16137;SDS011;8174;43.550;5.206;2023-05-29T05:14:08;6.72;;;4.20;;
16137;SDS011;8174;43.550;5.206;2023-05-29T05:16:35;5.55;;;3.90;;
16137;SDS011;8174;43.550;5.206;2023-05-29T05:19:02;7.45;;;4.07;;
16137;SDS011;8174;43.550;5.206;2023-05-29T05:21:30;7.18;;;4.20;;
16137;SDS011;8174;43.550;5.206;2023-05-29T05:23:58;7.50;;;4.22;;
16137;SDS011;8174;43.550;5.206;2023-05-29T05:26:25;7.93;;;3.90;;
16137;SDS011;8174;43.550;5.206;2023-05-29T05:28:54;5.60;;;4.03;;
16137;SDS011;8174;43.550;5.206;2023-05-29T05:31:21;9.07;;;3.78;;
16137;SDS011;8174;43.550;5.206;2023-05-29T05:33:48;6.32;;;3.95;;
16137;SDS011;8174;43.550;5.206;2023-05-29T05:36:16;4.90;;;3.70;;
16137;SDS011;8174;43.550;5.206;2023-05-29T05:38:43;5.90;;;3.67;;
16137;SDS011;8174;43.550;5.206;2023-05-29T05:41:10;7.47;;;3.95;;
16137;SDS011;8174;43.550;5.206;2023-05-29T05:43:38;4.72;;;3.45;;
16137;SDS011;8174;43.550;5.206;2023-05-29T05:46:06;5.90;;;3.63;;
16137;SDS011;8174;43.550;5.206;2023-05-29T05:48:34;5.57;;;3.28;;
16137;SDS011;8174;43.550;5.206;2023-05-29T05:51:01;6.05;;;3.58;;
16137;SDS011;8174;43.550;5.206;2023-05-29T05:53:28;5.70;;;3.53;;
16137;SDS011;8174;43.550;5.206;2023-05-29T05:55:55;6.97;;;3.67;;
16137;SDS011;8174;43.550;5.206;2023-05-29T05:58:23;4.53;;;3.13;;
16137;SDS011;8174;43.550;5.206;2023-05-29T06:00:50;5.07;;;3.28;;
16137;SDS011;8174;43.550;5.206;2023-05-29T06:03:19;6.30;;;3.75;;
16137;SDS011;8174;43.550;5.206;2023-05-29T06:05:46;8.23;;;3.83;;
16137;SDS011;8174;43.550;5.206;2023-05-29T06:08:13;4.97;;;3.20;;
16137;SDS011;8174;43.550;5.206;2023-05-29T06:10:41;7.22;;;4.47;;
16137;SDS011;8174;43.550;5.206;2023-05-29T06:13:08;7.32;;;2.92;;
16137;SDS011;8174;43.550;5.206;2023-05-29T06:15:36;8.27;;;3.03;;
16137;SDS011;8174;43.550;5.206;2023-05-29T06:18:04;5.25;;;3.00;;
16137;SDS011;8174;43.550;5.206;2023-05-29T06:20:32;5.13;;;3.17;;
16137;SDS011;8174;43.550;5.206;2023-05-29T06:23:00;6.80;;;3.47;;
16137;SDS011;8174;43.550;5.206;2023-05-29T06:25:27;6.15;;;3.63;;
16137;SDS011;8174;43.550;5.206;2023-05-29T06:27:58;5.45;;;3.47;;
16137;SDS011;8174;43.550;5.206;2023-05-29T06:30:25;7.72;;;3.30;;
16137;SDS011;8174;43.550;5.206;2023-05-29T06:32:53;4.78;;;3.05;;
16137;SDS011;8174;43.550;5.206;2023-05-29T06:35:20;8.02;;;3.42;;
16137;SDS011;8174;43.550;5.206;2023-05-29T06:37:48;6.30;;;4.38;;
16137;SDS011;8174;43.550;5.206;2023-05-29T06:40:16;5.75;;;3.17;;
16137;SDS011;8174;43.550;5.206;2023-05-29T06:42:43;5.95;;;4.05;;
16137;SDS011;8174;43.550;5.206;2023-05-29T06:45:10;7.13;;;3.42;;
16137;SDS011;8174;43.550;5.206;2023-05-29T06:47:39;6.10;;;3.15;;
16137;SDS011;8174;43.550;5.206;2023-05-29T06:50:07;8.23;;;3.60;;
16137;SDS011;8174;43.550;5.206;2023-05-29T06:52:34;6.22;;;3.22;;
16137;SDS011;8174;43.550;5.206;2023-05-29T06:55:03;8.25;;;3.20;;
16137;SDS011;8174;43.550;5.206;2023-05-29T06:57:31;8.00;;;3.88;;
16137;SDS011;8174;43.550;5.206;2023-05-29T06:59:58;5.65;;;3.05;;
16137;SDS011;8174;43.550;5.206;2023-05-29T07:02:25;7.00;;;3.78;;
16137;SDS011;8174;43.550;5.206;2023-05-29T07:04:52;7.25;;;2.95;;
16137;SDS011;8174;43.550;5.206;2023-05-29T07:07:20;6.72;;;3.63;;
16137;SDS011;8174;43.550;5.206;2023-05-29T07:09:47;6.78;;;3.67;;
16137;SDS011;8174;43.550;5.206;2023-05-29T07:12:16;4.43;;;3.08;;
16137;SDS011;8174;43.550;5.206;2023-05-29T07:14:43;6.72;;;3.45;;
16137;SDS011;8174;43.550;5.206;2023-05-29T07:17:13;6.60;;;3.33;;
16137;SDS011;8174;43.550;5.206;2023-05-29T07:19:40;6.13;;;3.10;;
16137;SDS011;8174;43.550;5.206;2023-05-29T07:22:07;6.45;;;3.10;;
16137;SDS011;8174;43.550;5.206;2023-05-29T07:24:35;7.07;;;3.92;;
16137;SDS011;8174;43.550;5.206;2023-05-29T07:27:02;5.70;;;3.75;;
16137;SDS011;8174;43.550;5.206;2023-05-29T07:29:31;5.72;;;3.13;;
16137;SDS011;8174;43.550;5.206;2023-05-29T07:31:59;9.73;;;5.60;;
16137;SDS011;8174;43.550;5.206;2023-05-29T07:34:26;6.03;;;3.20;;
16137;SDS011;8174;43.550;5.206;2023-05-29T07:36:56;7.10;;;4.97;;
16137;SDS011;8174;43.550;5.206;2023-05-29T07:39:25;6.72;;;5.22;;
16137;SDS011;8174;43.550;5.206;2023-05-29T07:41:52;12.32;;;10.55;;
16137;SDS011;8174;43.550;5.206;2023-05-29T07:44:19;9.07;;;7.93;;
16137;SDS011;8174;43.550;5.206;2023-05-29T07:46:48;6.25;;;4.68;;
16137;SDS011;8174;43.550;5.206;2023-05-29T07:49:15;4.40;;;3.15;;
16137;SDS011;8174;43.550;5.206;2023-05-29T07:51:43;5.00;;;2.90;;
16137;SDS011;8174;43.550;5.206;2023-05-29T07:54:10;7.75;;;5.25;;
16137;SDS011;8174;43.550;5.206;2023-05-29T07:56:37;3.22;;;2.70;;
16137;SDS011;8174;43.550;5.206;2023-05-29T07:59:05;6.72;;;2.78;;
16137;SDS011;8174;43.550;5.206;2023-05-29T08:01:34;7.35;;;3.95;;
16137;SDS011;8174;43.550;5.206;2023-05-29T08:04:02;4.38;;;2.63;;
16137;SDS011;8174;43.550;5.206;2023-05-29T08:06:30;7.07;;;5.35;;
16137;SDS011;8174;43.550;5.206;2023-05-29T08:08:59;22.33;;;5.70;;
16137;SDS011;8174;43.550;5.206;2023-05-29T08:11:26;7.38;;;3.42;;
16137;SDS011;8174;43.550;5.206;2023-05-29T08:13:53;5.28;;;2.80;;
16137;SDS011;8174;43.550;5.206;2023-05-29T08:16:21;4.10;;;2.75;;
16137;SDS011;8174;43.550;5.206;2023-05-29T08:18:48;6.32;;;2.67;;
16137;SDS011;8174;43.550;5.206;2023-05-29T08:21:17;4.90;;;2.63;;
16137;SDS011;8174;43.550;5.206;2023-05-29T08:23:44;7.47;;;6.10;;
16137;SDS011;8174;43.550;5.206;2023-05-29T08:26:11;5.78;;;2.55;;
16137;SDS011;8174;43.550;5.206;2023-05-29T08:28:38;4.38;;;2.80;;
16137;SDS011;8174;43.550;5.206;2023-05-29T08:31:06;6.72;;;3.35;;
16137;SDS011;8174;43.550;5.206;2023-05-29T08:33:33;8.82;;;7.93;;
16137;SDS011;8174;43.550;5.206;2023-05-29T08:36:01;4.97;;;3.05;;
16137;SDS011;8174;43.550;5.206;2023-05-29T08:38:30;3.78;;;2.90;;
16137;SDS011;8174;43.550;5.206;2023-05-29T08:40:58;5.95;;;4.60;;
16137;SDS011;8174;43.550;5.206;2023-05-29T08:43:28;6.15;;;4.85;;
16137;SDS011;8174;43.550;5.206;2023-05-29T08:45:58;7.80;;;7.00;;
16137;SDS011;8174;43.550;5.206;2023-05-29T08:48:26;4.45;;;3.28;;
16137;SDS011;8174;43.550;5.206;2023-05-29T08:50:55;3.10;;;2.70;;
16137;SDS011;8174;43.550;5.206;2023-05-29T08:53:22;4.90;;;2.60;;
16137;SDS011;8174;43.550;5.206;2023-05-29T08:55:52;14.18;;;8.88;;
16137;SDS011;8174;43.550;5.206;2023-05-29T08:58:21;3.03;;;2.40;;
16137;SDS011;8174;43.550;5.206;2023-05-29T09:00:48;4.53;;;3.30;;
16137;SDS011;8174;43.550;5.206;2023-05-29T09:03:16;4.65;;;3.47;;
16137;SDS011;8174;43.550;5.206;2023-05-29T09:05:45;5.25;;;2.85;;
16137;SDS011;8174;43.550;5.206;2023-05-29T09:08:13;5.03;;;3.40;;
16137;SDS011;8174;43.550;5.206;2023-05-29T09:10:41;5.60;;;4.20;;
16137;SDS011;8174;43.550;5.206;2023-05-29T09:13:11;4.18;;;2.55;;
16137;SDS011;8174;43.550;5.206;2023-05-29T09:15:39;4.30;;;2.60;;
16137;SDS011;8174;43.550;5.206;2023-05-29T09:18:08;5.38;;;2.83;;
16137;SDS011;8174;43.550;5.206;2023-05-29T09:20:35;6.38;;;4.47;;
16137;SDS011;8174;43.550;5.206;2023-05-29T09:23:03;6.45;;;3.63;;
16137;SDS011;8174;43.550;5.206;2023-05-29T09:25:31;5.20;;;2.78;;
16137;SDS011;8174;43.550;5.206;2023-05-29T09:27:58;5.78;;;4.07;;
16137;SDS011;8174;43.550;5.206;2023-05-29T09:30:31;5.57;;;2.92;;
16137;SDS011;8174;43.550;5.206;2023-05-29T09:32:59;4.90;;;3.78;;
16137;SDS011;8174;43.550;5.206;2023-05-29T09:35:31;6.53;;;4.22;;
16137;SDS011;8174;43.550;5.206;2023-05-29T09:37:59;7.72;;;6.20;;
16137;SDS011;8174;43.550;5.206;2023-05-29T09:40:28;9.75;;;4.68;;
16137;SDS011;8174;43.550;5.206;2023-05-29T09:42:56;9.35;;;4.80;;
16137;SDS011;8174;43.550;5.206;2023-05-29T09:45:29;7.13;;;3.78;;
16137;SDS011;8174;43.550;5.206;2023-05-29T09:47:59;6.00;;;3.75;;
16137;SDS011;8174;43.550;5.206;2023-05-29T09:50:26;7.28;;;3.22;;
16137;SDS011;8174;43.550;5.206;2023-05-29T09:52:56;8.30;;;3.35;;
16137;SDS011;8174;43.550;5.206;2023-05-29T09:55:23;5.78;;;3.55;;
16137;SDS011;8174;43.550;5.206;2023-05-29T09:57:53;5.03;;;3.40;;
16137;SDS011;8174;43.550;5.206;2023-05-29T10:00:21;5.72;;;3.65;;
16137;SDS011;8174;43.550;5.206;2023-05-29T10:02:48;6.22;;;3.05;;
16137;SDS011;8174;43.550;5.206;2023-05-29T10:05:17;5.65;;;3.33;;
16137;SDS011;8174;43.550;5.206;2023-05-29T10:07:46;5.45;;;3.38;;
16137;SDS011;8174;43.550;5.206;2023-05-29T10:10:14;4.50;;;3.30;;
16137;SDS011;8174;43.550;5.206;2023-05-29T10:12:44;8.30;;;3.15;;
16137;SDS011;8174;43.550;5.206;2023-05-29T10:15:12;6.53;;;3.30;;
16137;SDS011;8174;43.550;5.206;2023-05-29T10:17:39;5.43;;;3.08;;
16137;SDS011;8174;43.550;5.206;2023-05-29T10:20:11;5.75;;;2.85;;
16137;SDS011;8174;43.550;5.206;2023-05-29T10:22:45;8.90;;;3.33;;
16137;SDS011;8174;43.550;5.206;2023-05-29T10:25:13;5.72;;;2.90;;
16137;SDS011;8174;43.550;5.206;2023-05-29T10:27:41;9.27;;;3.35;;
16137;SDS011;8174;43.550;5.206;2023-05-29T10:30:10;5.47;;;3.00;;
16137;SDS011;8174;43.550;5.206;2023-05-29T10:32:44;8.90;;;3.20;;
16137;SDS011;8174;43.550;5.206;2023-05-29T10:35:16;6.05;;;3.50;;
16137;SDS011;8174;43.550;5.206;2023-05-29T10:37:47;5.30;;;3.40;;
16137;SDS011;8174;43.550;5.206;2023-05-29T10:40:17;7.22;;;4.30;;
16137;SDS011;8174;43.550;5.206;2023-05-29T10:42:49;7.38;;;3.88;;
16137;SDS011;8174;43.550;5.206;2023-05-29T10:50:53;5.47;;;3.33;;
16137;SDS011;8174;43.550;5.206;2023-05-29T10:53:24;7.57;;;3.58;;
16137;SDS011;8174;43.550;5.206;2023-05-29T10:55:52;5.90;;;4.38;;
16137;SDS011;8174;43.550;5.206;2023-05-29T10:58:20;8.35;;;4.90;;
16137;SDS011;8174;43.550;5.206;2023-05-29T11:00:49;4.95;;;3.30;;
16137;SDS011;8174;43.550;5.206;2023-05-29T11:03:22;4.63;;;3.40;;
16137;SDS011;8174;43.550;5.206;2023-05-29T11:05:56;8.25;;;3.65;;
16137;SDS011;8174;43.550;5.206;2023-05-29T11:08:29;5.20;;;3.88;;
16137;SDS011;8174;43.550;5.206;2023-05-29T11:11:00;6.68;;;3.13;;
16137;SDS011;8174;43.550;5.206;2023-05-29T11:13:30;6.00;;;3.72;;
16137;SDS011;8174;43.550;5.206;2023-05-29T11:16:12;5.80;;;3.90;;
16137;SDS011;8174;43.550;5.206;2023-05-29T11:18:42;6.28;;;3.00;;
16137;SDS011;8174;43.550;5.206;2023-05-29T11:23:54;6.65;;;3.15;;
16137;SDS011;8174;43.550;5.206;2023-05-29T11:26:26;6.75;;;3.25;;
16137;SDS011;8174;43.550;5.206;2023-05-29T11:28:54;6.78;;;3.10;;
16137;SDS011;8174;43.550;5.206;2023-05-29T11:31:24;5.15;;;3.28;;
16137;SDS011;8174;43.550;5.206;2023-05-29T11:33:51;28.48;;;16.92;;
16137;SDS011;8174;43.550;5.206;2023-05-29T11:36:22;9.07;;;4.95;;
16137;SDS011;8174;43.550;5.206;2023-05-29T11:38:50;9.65;;;6.10;;
16137;SDS011;8174;43.550;5.206;2023-05-29T11:41:19;21.75;;;14.48;;
16137;SDS011;8174;43.550;5.206;2023-05-29T11:43:55;6.38;;;5.30;;
16137;SDS011;8174;43.550;5.206;2023-05-29T11:46:22;7.85;;;5.00;;
16137;SDS011;8174;43.550;5.206;2023-05-29T11:48:51;11.32;;;5.82;;
16137;SDS011;8174;43.550;5.206;2023-05-29T11:51:19;8.80;;;6.22;;
16137;SDS011;8174;43.550;5.206;2023-05-29T11:53:46;9.88;;;6.18;;
16137;SDS011;8174;43.550;5.206;2023-05-29T11:56:14;9.68;;;6.05;;
16137;SDS011;8174;43.550;5.206;2023-05-29T11:58:43;7.00;;;5.55;;
16137;SDS011;8174;43.550;5.206;2023-05-29T12:01:10;7.57;;;5.82;;
16137;SDS011;8174;43.550;5.206;2023-05-29T12:03:38;7.85;;;5.60;;
16137;SDS011;8174;43.550;5.206;2023-05-29T12:06:05;11.65;;;5.95;;
16137;SDS011;8174;43.550;5.206;2023-05-29T12:08:33;9.80;;;5.72;;
16137;SDS011;8174;43.550;5.206;2023-05-29T12:11:00;7.68;;;5.53;;
16137;SDS011;8174;43.550;5.206;2023-05-29T12:13:27;7.80;;;5.82;;
16137;SDS011;8174;43.550;5.206;2023-05-29T12:15:57;9.55;;;6.00;;
16137;SDS011;8174;43.550;5.206;2023-05-29T12:18:25;9.20;;;5.65;;
16137;SDS011;8174;43.550;5.206;2023-05-29T12:20:56;11.68;;;5.53;;
16137;SDS011;8174;43.550;5.206;2023-05-29T12:23:24;10.52;;;5.68;;
16137;SDS011;8174;43.550;5.206;2023-05-29T12:25:52;7.28;;;6.00;;
16137;SDS011;8174;43.550;5.206;2023-05-29T12:28:19;10.05;;;5.72;;
16137;SDS011;8174;43.550;5.206;2023-05-29T12:30:49;8.30;;;5.50;;
16137;SDS011;8174;43.550;5.206;2023-05-29T12:33:27;9.90;;;6.43;;
16137;SDS011;8174;43.550;5.206;2023-05-29T12:35:54;10.25;;;7.05;;
16137;SDS011;8174;43.550;5.206;2023-05-29T12:38:22;8.30;;;5.82;;
16137;SDS011;8174;43.550;5.206;2023-05-29T12:40:52;8.93;;;5.57;;
16137;SDS011;8174;43.550;5.206;2023-05-29T12:43:19;9.70;;;5.45;;
16137;SDS011;8174;43.550;5.206;2023-05-29T12:45:47;8.23;;;5.68;;
16137;SDS011;8174;43.550;5.206;2023-05-29T12:48:25;7.93;;;5.47;;
16137;SDS011;8174;43.550;5.206;2023-05-29T12:50:54;10.68;;;6.22;;
16137;SDS011;8174;43.550;5.206;2023-05-29T12:53:23;10.05;;;5.68;;
16137;SDS011;8174;43.550;5.206;2023-05-29T12:55:56;12.55;;;5.88;;
16137;SDS011;8174;43.550;5.206;2023-05-29T12:58:23;7.75;;;5.70;;
16137;SDS011;8174;43.550;5.206;2023-05-29T13:00:52;8.82;;;5.90;;
16137;SDS011;8174;43.550;5.206;2023-05-29T13:03:22;8.68;;;5.72;;
16137;SDS011;8174;43.550;5.206;2023-05-29T13:05:49;12.15;;;5.90;;
16137;SDS011;8174;43.550;5.206;2023-05-29T13:08:19;7.55;;;6.05;;
16137;SDS011;8174;43.550;5.206;2023-05-29T13:10:46;8.70;;;5.65;;
16137;SDS011;8174;43.550;5.206;2023-05-29T13:13:14;10.93;;;6.13;;
16137;SDS011;8174;43.550;5.206;2023-05-29T13:15:41;9.00;;;6.15;;
16137;SDS011;8174;43.550;5.206;2023-05-29T13:18:08;9.63;;;5.72;;
16137;SDS011;8174;43.550;5.206;2023-05-29T13:20:35;7.72;;;5.90;;
16137;SDS011;8174;43.550;5.206;2023-05-29T13:23:02;8.25;;;5.78;;
16137;SDS011;8174;43.550;5.206;2023-05-29T13:25:31;9.55;;;6.38;;
16137;SDS011;8174;43.550;5.206;2023-05-29T13:27:58;9.50;;;5.65;;
16137;SDS011;8174;43.550;5.206;2023-05-29T13:30:26;8.20;;;5.85;;
16137;SDS011;8174;43.550;5.206;2023-05-29T13:32:53;9.25;;;5.93;;
16137;SDS011;8174;43.550;5.206;2023-05-29T13:35:21;9.45;;;6.50;;
16137;SDS011;8174;43.550;5.206;2023-05-29T13:37:48;10.35;;;6.32;;
16137;SDS011;8174;43.550;5.206;2023-05-29T13:40:15;7.78;;;6.10;;
16137;SDS011;8174;43.550;5.206;2023-05-29T13:42:45;10.88;;;7.18;;
16137;SDS011;8174;43.550;5.206;2023-05-29T13:45:12;12.43;;;7.18;;
16137;SDS011;8174;43.550;5.206;2023-05-29T13:47:39;12.55;;;8.20;;
16137;SDS011;8174;43.550;5.206;2023-05-29T13:50:07;11.90;;;7.93;;
16137;SDS011;8174;43.550;5.206;2023-05-29T13:52:35;14.35;;;8.80;;
16137;SDS011;8174;43.550;5.206;2023-05-29T13:55:02;20.70;;;10.07;;
16137;SDS011;8174;43.550;5.206;2023-05-29T13:57:33;20.10;;;10.02;;
16137;SDS011;8174;43.550;5.206;2023-05-29T14:00:03;14.73;;;8.55;;
16137;SDS011;8174;43.550;5.206;2023-05-29T14:02:30;15.27;;;8.38;;
16137;SDS011;8174;43.550;5.206;2023-05-29T14:04:58;15.70;;;9.20;;
16137;SDS011;8174;43.550;5.206;2023-05-29T14:07:25;13.38;;;8.50;;
16137;SDS011;8174;43.550;5.206;2023-05-29T14:09:52;16.98;;;9.40;;
16137;SDS011;8174;43.550;5.206;2023-05-29T14:12:20;16.02;;;8.90;;
16137;SDS011;8174;43.550;5.206;2023-05-29T14:14:47;16.33;;;8.43;;
16137;SDS011;8174;43.550;5.206;2023-05-29T14:17:15;18.17;;;9.52;;
16137;SDS011;8174;43.550;5.206;2023-05-29T14:19:43;12.70;;;9.77;;
16137;SDS011;8174;43.550;5.206;2023-05-29T14:22:12;13.75;;;9.82;;
16137;SDS011;8174;43.550;5.206;2023-05-29T14:24:39;13.35;;;9.05;;
16137;SDS011;8174;43.550;5.206;2023-05-29T14:27:07;12.40;;;8.25;;
16137;SDS011;8174;43.550;5.206;2023-05-29T14:29:34;15.05;;;7.97;;
16137;SDS011;8174;43.550;5.206;2023-05-29T14:32:02;10.20;;;7.53;;
16137;SDS011;8174;43.550;5.206;2023-05-29T14:34:30;15.90;;;6.88;;
16137;SDS011;8174;43.550;5.206;2023-05-29T14:36:57;15.93;;;6.75;;
16137;SDS011;8174;43.550;5.206;2023-05-29T14:39:25;9.73;;;6.72;;
16137;SDS011;8174;43.550;5.206;2023-05-29T14:41:52;9.80;;;6.05;;
16137;SDS011;8174;43.550;5.206;2023-05-29T14:44:19;9.77;;;6.22;;
16137;SDS011;8174;43.550;5.206;2023-05-29T14:46:47;9.55;;;5.90;;
16137;SDS011;8174;43.550;5.206;2023-05-29T14:49:14;9.38;;;5.35;;
16137;SDS011;8174;43.550;5.206;2023-05-29T14:51:43;8.90;;;5.80;;
16137;SDS011;8174;43.550;5.206;2023-05-29T14:54:10;8.93;;;5.85;;
16137;SDS011;8174;43.550;5.206;2023-05-29T14:56:38;6.07;;;5.25;;
16137;SDS011;8174;43.550;5.206;2023-05-29T14:59:05;8.93;;;5.55;;
16137;SDS011;8174;43.550;5.206;2023-05-29T15:01:32;8.90;;;5.15;;
16137;SDS011;8174;43.550;5.206;2023-05-29T15:03:59;10.77;;;6.05;;
16137;SDS011;8174;43.550;5.206;2023-05-29T15:06:27;10.73;;;5.97;;
16137;SDS011;8174;43.550;5.206;2023-05-29T15:08:56;10.60;;;6.15;;
16137;SDS011;8174;43.550;5.206;2023-05-29T15:11:25;9.85;;;6.00;;
16137;SDS011;8174;43.550;5.206;2023-05-29T15:13:53;12.30;;;6.20;;